Time;durP1;ratioP1;P1;durP2;ratioP2;P2;SDS_P1;SDS_P2;PMS_P1;PMS_P2;Temp;Humidity;BMP_temperature;BMP_pressure;BME280_temperature;BME280_humidity;BME280_pressure;Samples;Min_cycle;Max_cycle;Signal;HPM_P1;HPM_P2
2022/08/13 00:02:10;;;;;;;;;;;;;;;23.75;78.95;96704.52;619650;229;67236;-64
2022/08/13 00:04:42;;;;;;;;;;;;;;;23.74;78.94;96713.67;619628;229;65089;-64
2022/08/13 00:07:10;;;;;;;;;;;;;;;23.74;79.02;96698.37;619523;229;67033;-64
2022/08/13 00:09:39;;;;;;;;;;;;;;;23.74;79.04;96693.00;619633;229;67024;-64
2022/08/13 00:14:53;;;;;;;;;;;;;;;23.75;79.15;96693.79;619593;229;64389;-64
2022/08/13 00:17:21;;;;;;;;;;;;;;;23.75;79.10;96693.79;617939;229;64669;-64
2022/08/13 00:19:50;;;;;;;;;;;;;;;23.74;79.06;96697.58;615086;230;62723;-64
2022/08/13 00:22:19;;;;;;;;;;;;;;;23.75;79.09;96699.16;615107;230;65116;-64
2022/08/13 00:24:47;;;;;;;;;;;;;;;23.74;79.11;96692.21;615159;230;66916;-64
2022/08/13 00:27:14;;;;;;;;;;;;;;;23.75;79.16;96696.47;615118;230;64883;-64
2022/08/13 00:29:42;;;;;;;;;;;;;;;23.73;79.16;96686.02;615209;230;67063;-64
2022/08/13 00:32:10;;;;;;;;;;;;;;;23.73;79.18;96688.70;615167;230;64850;-64
2022/08/13 00:34:38;;;;;;;;;;;;;;;23.74;79.22;96697.58;615175;230;62762;-64
2022/08/13 00:37:09;;;;;;;;;;;;;;;23.74;79.17;96694.89;615207;230;66760;-64
2022/08/13 00:39:34;;;;;;;;;;;;;;;23.73;79.15;96691.39;615140;229;64474;-64
2022/08/13 00:42:02;;;;;;;;;;;;;;;23.74;79.13;96693.00;615201;230;65200;-63
2022/08/13 00:44:31;;;;;;;;;;;;;;;23.73;79.16;96691.39;615149;230;66728;-64
2022/08/13 00:49:47;;;;;;;;;;;;;;;23.74;79.14;96694.89;615183;230;62826;-64
2022/08/13 00:52:14;;;;;;;;;;;;;;;23.73;79.09;96693.28;615132;230;64562;-64
2022/08/13 00:54:42;;;;;;;;;;;;;;;23.74;79.14;96697.58;615186;230;66752;-64
2022/08/13 00:57:12;;;;;;;;;;;;;;;23.73;79.16;96694.08;615253;230;65274;-64
2022/08/13 00:59:38;;;;;;;;;;;;;;;23.73;79.21;96690.59;615108;229;71614;-64
2022/08/13 01:02:06;;;;;;;;;;;;;;;23.72;79.26;96689.81;615172;230;66651;-64
2022/08/13 01:04:34;;;;;;;;;;;;;;;23.73;79.32;96693.28;615156;230;66159;-64
2022/08/13 01:07:04;;;;;;;;;;;;;;;23.73;79.36;96693.28;615115;230;67119;-64
2022/08/13 01:09:31;;;;;;;;;;;;;;;23.72;79.38;96687.13;615191;230;67357;-64
2022/08/13 01:12:00;;;;;;;;;;;;;;;23.73;79.43;96687.92;615211;230;65033;-64
2022/08/13 01:14:32;;;;;;;;;;;;;;;23.72;79.46;96683.66;615126;230;64757;-64
2022/08/13 01:17:01;;;;;;;;;;;;;;;23.72;79.49;96691.70;616167;229;65044;-64
2022/08/13 01:19:30;;;;;;;;;;;;;;;23.72;79.51;96684.45;619413;229;62749;-64
2022/08/13 01:21:57;;;;;;;;;;;;;;;23.73;79.53;96690.59;619623;229;67252;-64
2022/08/13 01:24:25;;;;;;;;;;;;;;;23.72;79.56;96683.66;619683;229;67010;-64
2022/08/13 01:26:53;;;;;;;;;;;;;;;23.72;79.56;96684.45;619682;229;62720;-64
2022/08/13 01:29:20;;;;;;;;;;;;;;;23.72;79.57;96679.08;619657;229;64524;-64
2022/08/13 01:31:48;;;;;;;;;;;;;;;23.72;79.56;96678.29;619630;229;64754;-64
2022/08/13 01:34:16;;;;;;;;;;;;;;;23.72;79.57;96681.77;619620;229;62833;-64
2022/08/13 01:36:46;;;;;;;;;;;;;;;23.72;79.59;96679.08;619682;229;67650;-64
2022/08/13 01:39:14;;;;;;;;;;;;;;;23.72;79.59;96675.61;619664;229;67012;-64
2022/08/13 01:41:41;;;;;;;;;;;;;;;23.72;79.60;96672.92;619659;229;64974;-64
2022/08/13 01:44:09;;;;;;;;;;;;;;;23.71;79.57;96666.77;619626;229;64856;-64
2022/08/13 01:52:09;;;;;;;;;;;;;;;23.72;79.55;96662.19;619739;229;67754;-63
2022/08/13 01:54:38;;;;;;;;;;;;;;;23.71;79.55;96656.03;619641;229;66823;-63
2022/08/13 01:57:07;;;;;;;;;;;;;;;23.71;79.57;96658.72;619648;229;65219;-63
2022/08/13 01:59:36;;;;;;;;;;;;;;;23.70;79.56;96657.88;619634;229;64561;-63
2022/08/13 02:02:04;;;;;;;;;;;;;;;23.70;79.54;96665.92;619683;229;66722;-63
2022/08/13 02:04:35;;;;;;;;;;;;;;;23.70;79.59;96651.72;619659;229;65091;-63
2022/08/13 02:07:02;;;;;;;;;;;;;;;23.69;79.59;96656.29;619727;229;64602;-63
2022/08/13 02:09:32;;;;;;;;;;;;;;;23.70;79.63;96659.77;619637;229;66839;-63
2022/08/13 02:12:00;;;;;;;;;;;;;;;23.70;79.67;96654.39;619642;229;65018;-63
2022/08/13 02:14:28;;;;;;;;;;;;;;;23.70;79.69;96652.50;619652;229;66720;-63
2022/08/13 02:16:56;;;;;;;;;;;;;;;23.69;79.71;96650.92;619633;229;66346;-63
2022/08/13 02:19:23;;;;;;;;;;;;;;;23.70;79.74;96655.19;619717;229;62868;-63
2022/08/13 02:21:51;;;;;;;;;;;;;;;23.70;79.73;96657.88;619614;229;64327;-63
2022/08/13 02:24:19;;;;;;;;;;;;;;;23.69;79.71;96656.29;619624;229;64865;-63
2022/08/13 02:26:47;;;;;;;;;;;;;;;23.70;79.76;96657.08;619678;229;62762;-63
2022/08/13 02:29:14;;;;;;;;;;;;;;;23.70;79.79;96649.82;619640;229;64257;-63
2022/08/13 02:31:42;;;;;;;;;;;;;;;23.70;79.83;96652.50;619708;229;64796;-63
2022/08/13 02:34:11;;;;;;;;;;;;;;;23.69;79.84;96652.81;619646;229;65215;-63
2022/08/13 02:36:40;;;;;;;;;;;;;;;23.69;79.90;96650.92;619668;229;64444;-63
2022/08/13 02:39:09;;;;;;;;;;;;;;;23.69;79.86;96652.81;619633;229;66634;-64
2022/08/13 02:41:44;;;;;;;;;;;;;;;23.68;79.88;96641.30;619683;229;65208;-63
2022/08/13 02:44:15;;;;;;;;;;;;;;;23.69;79.87;96650.92;619722;229;66698;-63
2022/08/13 02:46:49;;;;;;;;;;;;;;;23.69;79.83;96647.45;619680;229;66800;-63
2022/08/13 02:49:13;;;;;;;;;;;;;;;23.68;79.88;96652.03;619510;229;64888;-63
2022/08/13 02:51:42;;;;;;;;;;;;;;;23.68;79.87;96649.34;619659;229;64831;-63
2022/08/13 02:54:11;;;;;;;;;;;;;;;23.68;79.85;96657.39;619663;229;66793;-63
2022/08/13 02:56:39;;;;;;;;;;;;;;;23.68;79.85;96652.03;619677;229;65335;-63
2022/08/13 02:59:10;;;;;;;;;;;;;;;23.68;79.87;96660.08;619699;229;66743;-63
2022/08/13 03:01:36;;;;;;;;;;;;;;;23.68;79.87;96657.39;619565;229;67446;-64
2022/08/13 03:04:04;;;;;;;;;;;;;;;23.68;79.96;96657.39;619659;229;65259;-64
2022/08/13 03:06:32;;;;;;;;;;;;;;;23.68;79.96;96661.94;619653;229;66743;-63
2022/08/13 03:09:01;;;;;;;;;;;;;;;23.68;80.03;96665.44;619633;229;66822;-64
2022/08/13 03:11:29;;;;;;;;;;;;;;;23.68;80.08;96661.94;619696;229;64944;-70
2022/08/13 03:13:58;;;;;;;;;;;;;;;23.67;80.06;96665.72;619595;229;66889;-69
2022/08/13 03:16:26;;;;;;;;;;;;;;;23.67;80.00;96666.52;619622;229;64697;-69
2022/08/13 03:18:54;;;;;;;;;;;;;;;23.68;80.08;96660.08;621733;228;65148;-69
2022/08/13 03:21:24;;;;;;;;;;;;;;;23.68;80.06;96662.76;621735;228;66613;-69
2022/08/13 03:23:51;;;;;;;;;;;;;;;23.67;80.08;96663.83;621797;228;64557;-69
2022/08/13 03:26:20;;;;;;;;;;;;;;;23.68;80.11;96662.76;621742;228;62656;-69
2022/08/13 03:28:51;;;;;;;;;;;;;;;23.68;80.11;96660.08;621712;228;66940;-69
2022/08/13 03:31:17;;;;;;;;;;;;;;;23.68;80.07;96661.94;621707;228;64095;-70
2022/08/13 03:33:45;;;;;;;;;;;;;;;23.68;80.00;96665.44;621748;228;65003;-70
2022/08/13 03:36:13;;;;;;;;;;;;;;;23.67;79.99;96666.52;621750;228;67017;-69
2022/08/13 03:38:41;;;;;;;;;;;;;;;23.67;79.98;96661.15;621763;228;67078;-70
2022/08/13 03:41:14;;;;;;;;;;;;;;;23.68;79.95;96660.08;621738;228;62676;-70
2022/08/13 03:43:47;;;;;;;;;;;;;;;23.67;79.90;96669.20;621552;228;66921;-70
2022/08/13 03:46:21;;;;;;;;;;;;;;;23.67;79.88;96665.72;621744;228;66792;-70
2022/08/13 03:48:47;;;;;;;;;;;;;;;23.67;79.89;96666.52;621594;228;62742;-70
2022/08/13 03:51:16;;;;;;;;;;;;;;;23.67;79.84;96663.05;621787;228;66977;-70
2022/08/13 03:53:45;;;;;;;;;;;;;;;23.67;79.83;96671.09;621726;228;64933;-70
2022/08/13 03:56:13;;;;;;;;;;;;;;;23.68;79.88;96672.67;621769;228;64914;-70
2022/08/13 03:58:41;;;;;;;;;;;;;;;23.67;79.92;96673.77;621747;228;64066;-69
2022/08/13 04:01:09;;;;;;;;;;;;;;;23.67;79.86;96671.09;621780;228;66847;-70
2022/08/13 04:03:37;;;;;;;;;;;;;;;23.66;79.79;96672.98;621776;228;62728;-70
2022/08/13 04:06:06;;;;;;;;;;;;;;;23.67;79.78;96665.72;621755;228;65069;-70
2022/08/13 04:08:35;;;;;;;;;;;;;;;23.67;79.80;96671.09;621781;228;66703;-69
2022/08/13 04:11:08;;;;;;;;;;;;;;;23.66;79.86;96664.14;621768;228;65034;-69
2022/08/13 04:13:36;;;;;;;;;;;;;;;23.67;79.90;96671.88;621739;228;64820;-69
2022/08/13 04:16:08;;;;;;;;;;;;;;;23.67;79.92;96669.20;621736;228;66677;-64
2022/08/13 04:18:38;;;;;;;;;;;;;;;23.66;79.93;96670.30;619824;228;45120;-64
2022/08/13 04:21:08;;;;;;;;;;;;;;;23.66;79.89;96656.89;619672;229;64342;-64
2022/08/13 04:23:43;;;;;;;;;;;;;;;23.66;79.93;96664.94;619671;229;66821;-64
2022/08/13 04:26:08;;;;;;;;;;;;;;;23.66;79.99;96662.25;619377;229;64871;-63
2022/08/13 04:28:38;;;;;;;;;;;;;;;23.65;79.99;96657.99;619648;229;66747;-63
2022/08/13 04:31:05;;;;;;;;;;;;;;;23.66;80.01;96662.25;619609;229;64359;-64
2022/08/13 04:33:33;;;;;;;;;;;;;;;23.66;80.08;96664.14;619721;229;63012;-64
2022/08/13 04:36:01;;;;;;;;;;;;;;;23.65;80.17;96657.99;619674;229;65559;-63
2022/08/13 04:38:28;;;;;;;;;;;;;;;23.65;80.10;96654.48;619668;229;64388;-69
2022/08/13 04:40:57;;;;;;;;;;;;;;;23.66;80.10;96658.78;619672;229;63374;-69
2022/08/13 04:43:24;;;;;;;;;;;;;;;23.66;80.23;96658.78;619656;229;66794;-70
2022/08/13 04:45:52;;;;;;;;;;;;;;;23.65;80.21;96654.48;619755;229;66226;-70
2022/08/13 04:48:21;;;;;;;;;;;;;;;23.65;80.23;96652.63;619698;229;64886;-70
2022/08/13 04:50:48;;;;;;;;;;;;;;;23.65;80.21;96647.26;619696;229;64082;-69
2022/08/13 04:53:27;;;;;;;;;;;;;;;23.65;80.25;96649.94;619660;229;66951;-70
2022/08/13 04:55:55;;;;;;;;;;;;;;;23.65;80.24;96649.94;619651;229;63573;-70
2022/08/13 04:58:23;;;;;;;;;;;;;;;23.65;80.35;96659.85;619741;229;66546;-69
2022/08/13 05:00:51;;;;;;;;;;;;;;;23.65;80.38;96652.63;619718;229;66461;-63
2022/08/13 05:03:20;;;;;;;;;;;;;;;23.65;80.37;96646.44;619682;229;65055;-64
2022/08/13 05:05:49;;;;;;;;;;;;;;;23.65;80.45;96641.89;619686;229;66745;-63
2022/08/13 05:08:19;;;;;;;;;;;;;;;23.65;80.39;96649.13;619635;229;66933;-63
2022/08/13 05:10:47;;;;;;;;;;;;;;;23.65;80.38;96649.94;619686;229;64951;-69
2022/08/13 05:13:33;;;;;;;;;;;;;;;23.65;80.52;96643.75;619683;229;66545;-69
2022/08/13 05:16:01;;;;;;;;;;;;;;;23.65;80.48;96646.44;619660;229;66808;-69
2022/08/13 05:18:30;;;;;;;;;;;;;;;23.65;80.50;96644.58;615765;229;62786;-69
2022/08/13 05:20:59;;;;;;;;;;;;;;;23.64;80.52;96640.28;615148;230;65052;-69
2022/08/13 05:23:27;;;;;;;;;;;;;;;23.63;80.53;96644.07;615148;230;64545;-69
2022/08/13 05:25:54;;;;;;;;;;;;;;;23.64;80.58;96639.49;615162;230;62744;-69
2022/08/13 05:28:22;;;;;;;;;;;;;;;23.64;80.61;96645.65;615226;230;64561;-69
2022/08/13 05:30:51;;;;;;;;;;;;;;;23.64;80.56;96640.28;615157;230;64400;-69
2022/08/13 05:33:20;;;;;;;;;;;;;;;23.64;80.58;96639.49;615157;230;65033;-69
2022/08/13 05:35:49;;;;;;;;;;;;;;;23.65;80.53;96635.70;615156;229;63506;-69
2022/08/13 05:38:22;;;;;;;;;;;;;;;23.63;80.59;96633.34;615122;230;66664;-69
2022/08/13 05:40:50;;;;;;;;;;;;;;;23.64;80.62;96623.40;615168;229;45909;-69
2022/08/13 05:43:19;;;;;;;;;;;;;;;23.64;80.61;96621.50;614931;229;66897;-69
2022/08/13 05:45:55;;;;;;;;;;;;;;;23.63;80.62;96625.30;615147;230;66725;-69
2022/08/13 05:48:22;;;;;;;;;;;;;;;23.64;80.69;96620.72;615138;229;47031;-69
2022/08/13 05:50:49;;;;;;;;;;;;;;;23.63;80.67;96614.56;615117;229;66763;-69
2022/08/13 05:53:17;;;;;;;;;;;;;;;23.63;80.68;96617.24;615215;230;64567;-69
2022/08/13 05:55:45;;;;;;;;;;;;;;;23.62;80.63;96615.63;615207;230;62741;-69
2022/08/13 05:58:12;;;;;;;;;;;;;;;23.63;80.62;96611.88;615146;230;66861;-69
2022/08/13 06:03:31;;;;;;;;;;;;;;;23.63;80.57;96605.72;615163;230;62668;-70
2022/08/13 06:06:05;;;;;;;;;;;;;;;23.63;80.58;96617.24;615134;230;67014;-70
2022/08/13 06:08:35;;;;;;;;;;;;;;;23.63;80.58;96611.09;615110;230;67285;-69
2022/08/13 06:11:08;;;;;;;;;;;;;;;23.63;80.63;96613.77;615146;230;62841;-70
2022/08/13 06:13:38;;;;;;;;;;;;;;;23.62;80.54;96620.21;611756;230;67240;-70
2022/08/13 06:16:10;;;;;;;;;;;;;;;23.61;80.04;96614.06;615113;230;66799;-70
2022/08/13 06:18:39;;;;;;;;;;;;;;;23.62;79.65;96621.00;619193;229;62754;-69
2022/08/13 06:21:10;;;;;;;;;;;;;;;23.63;80.24;96622.61;619639;229;67080;-63
2022/08/13 06:23:38;;;;;;;;;;;;;;;23.63;80.38;96621.82;619657;229;67654;-63
2022/08/13 06:26:07;;;;;;;;;;;;;;;23.64;80.90;96618.03;619661;229;65314;-63
2022/08/13 06:28:35;;;;;;;;;;;;;;;23.65;81.26;96619.61;619383;229;67132;-63
2022/08/13 06:31:13;;;;;;;;;;;;;;;23.64;81.48;96616.14;619621;229;66901;-63
2022/08/13 06:33:39;;;;;;;;;;;;;;;23.64;81.55;96618.83;619607;229;63540;-63
2022/08/13 06:36:08;;;;;;;;;;;;;;;23.65;81.58;96631.16;619623;229;65130;-63
2022/08/13 06:38:36;;;;;;;;;;;;;;;23.64;81.65;96624.19;619680;229;64845;-63
2022/08/13 06:41:05;;;;;;;;;;;;;;;23.65;81.74;96619.61;619651;229;65949;-63
2022/08/13 06:43:35;;;;;;;;;;;;;;;23.65;81.73;96623.12;619614;229;67156;-63
2022/08/13 06:46:05;;;;;;;;;;;;;;;23.65;81.74;96612.39;619658;229;67030;-70
2022/08/13 06:48:36;;;;;;;;;;;;;;;23.66;81.78;96610.48;619614;229;62174;-70
2022/08/13 06:51:05;;;;;;;;;;;;;;;23.66;81.81;96607.81;619731;229;65708;-70
2022/08/13 06:53:38;;;;;;;;;;;;;;;23.67;81.82;96614.75;619674;229;64705;-70
2022/08/13 06:56:11;;;;;;;;;;;;;;;23.66;81.81;96615.86;619632;229;64870;-70
2022/08/13 06:58:39;;;;;;;;;;;;;;;23.66;81.84;96613.17;619613;229;64868;-71
2022/08/13 07:01:07;;;;;;;;;;;;;;;23.66;81.81;96605.91;619616;229;64620;-71
2022/08/13 07:03:36;;;;;;;;;;;;;;;23.66;81.81;96611.28;619634;229;65090;-71
2022/08/13 07:06:03;;;;;;;;;;;;;;;23.67;81.83;96607.50;619674;229;65121;-71
2022/08/13 07:08:31;;;;;;;;;;;;;;;23.67;81.87;96606.70;619638;229;64791;-71
2022/08/13 07:13:39;;;;;;;;;;;;;;;23.68;81.82;96608.28;612935;229;67095;-71
2022/08/13 07:16:10;;;;;;;;;;;;;;;23.67;81.86;96604.81;619651;229;66753;-71
2022/08/13 07:18:38;;;;;;;;;;;;;;;23.67;81.86;96602.13;619571;229;64858;-71
2022/08/13 07:21:07;;;;;;;;;;;;;;;23.67;81.86;96602.13;619666;229;67013;-71
2022/08/13 07:23:35;;;;;;;;;;;;;;;23.67;81.87;96610.17;619253;229;67243;-71
2022/08/13 07:26:04;;;;;;;;;;;;;;;23.67;81.87;96609.39;619431;229;65168;-70
2022/08/13 07:28:33;;;;;;;;;;;;;;;23.68;81.85;96611.78;619515;229;64595;-71
2022/08/13 07:31:02;;;;;;;;;;;;;;;23.68;81.90;96606.42;619533;229;66933;-68
2022/08/13 07:33:29;;;;;;;;;;;;;;;23.68;81.84;96603.73;619657;229;63842;-70
2022/08/13 07:35:57;;;;;;;;;;;;;;;23.67;80.74;96602.13;619496;229;67036;-68
2022/08/13 07:38:26;;;;;;;;;;;;;;;23.69;81.02;96601.84;618624;229;66937;-67
2022/08/13 07:40:55;;;;;;;;;;;;;;;23.67;80.81;96591.40;619682;228;67702;-67
2022/08/13 07:43:23;;;;;;;;;;;;;;;23.67;80.59;96591.40;619610;229;66761;-67
2022/08/13 07:46:10;;;;;;;;;;;;;;;23.68;80.47;96589.50;619708;229;66769;-67
2022/08/13 07:48:36;;;;;;;;;;;;;;;23.67;80.32;96586.03;619500;229;64850;-69
2022/08/13 07:51:05;;;;;;;;;;;;;;;23.68;80.14;96592.19;619479;229;64964;-68
2022/08/13 07:53:39;;;;;;;;;;;;;;;23.66;80.00;96587.14;619663;229;67288;-68
2022/08/13 07:56:07;;;;;;;;;;;;;;;23.67;79.88;96579.88;619480;229;65024;-69
2022/08/13 07:58:36;;;;;;;;;;;;;;;23.66;79.76;96576.41;619657;229;65063;-69
2022/08/13 08:01:05;;;;;;;;;;;;;;;23.67;79.67;96580.67;619684;229;64955;-69
2022/08/13 08:03:42;;;;;;;;;;;;;;;23.67;79.53;96574.52;619621;229;65021;-70
2022/08/13 08:06:16;;;;;;;;;;;;;;;23.67;79.44;96572.63;619668;229;67198;-70
2022/08/13 08:08:42;;;;;;;;;;;;;;;23.67;79.32;96563.78;619445;229;66880;-69
2022/08/13 08:11:09;;;;;;;;;;;;;;;23.67;79.23;96572.63;619614;228;64884;-69
2022/08/13 08:13:39;;;;;;;;;;;;;;;23.67;79.15;96569.94;619621;229;67342;-69
2022/08/13 08:16:06;;;;;;;;;;;;;;;23.67;79.12;96572.63;619668;229;66931;-69
2022/08/13 08:18:34;;;;;;;;;;;;;;;23.67;79.06;96569.15;619638;229;65701;-69
2022/08/13 08:21:06;;;;;;;;;;;;;;;23.68;79.06;96568.05;619657;229;67088;-69
2022/08/13 08:23:35;;;;;;;;;;;;;;;23.68;78.97;96570.73;619663;229;64981;-69
2022/08/13 08:26:07;;;;;;;;;;;;;;;23.68;78.98;96566.18;619654;229;65299;-69
2022/08/13 08:28:35;;;;;;;;;;;;;;;23.67;78.93;96559.20;619671;229;65140;-70
2022/08/13 08:31:07;;;;;;;;;;;;;;;23.68;78.84;96565.36;619702;229;66847;-69
2022/08/13 08:33:35;;;;;;;;;;;;;;;23.68;78.85;96559.99;619634;229;63011;-69
2022/08/13 08:36:04;;;;;;;;;;;;;;;23.67;78.77;96558.42;619612;229;44858;-69
2022/08/13 08:44:04;;;;;;;;;;;;;;;23.67;78.74;96550.38;619639;229;64756;-69
2022/08/13 08:46:34;;;;;;;;;;;;;;;23.67;78.71;96547.69;619667;229;67190;-69
2022/08/13 08:49:04;;;;;;;;;;;;;;;23.66;78.73;96536.17;619645;229;64923;-69
2022/08/13 08:51:33;;;;;;;;;;;;;;;23.67;78.71;96542.33;619526;229;64558;-69
2022/08/13 08:54:02;;;;;;;;;;;;;;;23.66;78.68;96538.85;619652;229;64848;-69
2022/08/13 08:56:32;;;;;;;;;;;;;;;23.67;78.65;96542.33;619681;229;63098;-69
2022/08/13 08:59:02;;;;;;;;;;;;;;;23.67;78.72;96536.95;619710;229;66600;-68
2022/08/13 09:01:31;;;;;;;;;;;;;;;23.67;78.63;96531.59;619691;229;64472;-69
2022/08/13 09:04:00;;;;;;;;;;;;;;;23.66;78.57;96525.44;618932;229;65062;-69
2022/08/13 09:06:31;;;;;;;;;;;;;;;23.66;78.56;96530.02;619693;229;67199;-69
2022/08/13 09:09:01;;;;;;;;;;;;;;;23.66;78.54;96520.07;619688;229;64563;-69
2022/08/13 09:11:34;;;;;;;;;;;;;;;23.66;78.54;96522.75;619665;229;66194;-69
2022/08/13 09:13:59;;;;;;;;;;;;;;;23.66;78.46;96525.44;619576;229;66725;-69
2022/08/13 09:16:27;;;;;;;;;;;;;;;23.66;78.41;96514.70;619568;229;64555;-68
2022/08/13 09:18:55;;;;;;;;;;;;;;;23.67;78.35;96521.65;615131;230;65029;-69
2022/08/13 09:21:23;;;;;;;;;;;;;;;23.66;78.28;96508.55;615187;230;67120;-69
2022/08/13 09:23:50;;;;;;;;;;;;;;;23.66;78.30;96514.70;615142;230;66870;-69
2022/08/13 09:26:18;;;;;;;;;;;;;;;23.66;78.24;96520.07;615195;230;62714;-69
2022/08/13 09:28:46;;;;;;;;;;;;;;;23.66;78.26;96512.02;615082;230;67281;-69
2022/08/13 09:31:16;;;;;;;;;;;;;;;23.66;78.25;96514.70;615127;230;67044;-69
2022/08/13 09:33:44;;;;;;;;;;;;;;;23.67;78.14;96516.28;615135;230;63006;-69
2022/08/13 09:36:13;;;;;;;;;;;;;;;23.66;78.08;96519.28;615122;230;67076;-69
2022/08/13 09:38:40;;;;;;;;;;;;;;;23.65;78.05;96513.13;615151;230;67005;-69
2022/08/13 09:41:17;;;;;;;;;;;;;;;23.66;78.05;96508.55;615172;230;62734;-69
2022/08/13 09:43:45;;;;;;;;;;;;;;;23.66;78.03;96501.30;615006;229;67068;-68
2022/08/13 09:46:15;;;;;;;;;;;;;;;23.66;77.92;96509.34;615196;230;64441;-68
2022/08/13 09:48:44;;;;;;;;;;;;;;;23.67;78.01;96505.55;615112;230;65153;-68
2022/08/13 09:51:13;;;;;;;;;;;;;;;23.66;78.01;96501.30;615155;230;67129;-68
2022/08/13 09:53:41;;;;;;;;;;;;;;;23.67;77.97;96500.19;615147;230;67354;-68
2022/08/13 09:56:08;;;;;;;;;;;;;;;23.66;77.93;96493.25;615099;230;65211;-68
2022/08/13 09:58:36;;;;;;;;;;;;;;;23.67;77.94;96488.67;615153;230;64876;-68
2022/08/13 10:01:07;;;;;;;;;;;;;;;23.65;77.90;96488.98;615136;230;64824;-68
2022/08/13 10:03:38;;;;;;;;;;;;;;;23.66;77.89;96493.25;615181;230;62841;-63
2022/08/13 10:06:07;;;;;;;;;;;;;;;23.67;77.88;96483.30;615123;229;64830;-62
2022/08/13 10:08:34;;;;;;;;;;;;;;;23.66;77.80;96481.73;615142;230;65009;-63
2022/08/13 10:11:02;;;;;;;;;;;;;;;23.66;77.84;96487.87;615160;230;64901;-63
2022/08/13 10:13:30;;;;;;;;;;;;;;;23.65;77.78;96488.98;615133;230;66969;-63
2022/08/13 10:15:59;;;;;;;;;;;;;;;23.66;77.78;96477.16;615130;230;66828;-63
2022/08/13 10:18:28;;;;;;;;;;;;;;;23.66;77.73;96482.52;615070;229;63051;-63
2022/08/13 10:20:55;;;;;;;;;;;;;;;23.65;77.71;96480.94;615171;230;67301;-62
2022/08/13 10:23:23;;;;;;;;;;;;;;;23.65;77.68;96483.62;615141;230;67087;-62
2022/08/13 10:25:52;;;;;;;;;;;;;;;23.66;77.74;96476.36;615141;230;62635;-63
2022/08/13 10:28:27;;;;;;;;;;;;;;;23.65;77.76;96480.94;615120;230;67058;-63
2022/08/13 10:30:55;;;;;;;;;;;;;;;23.66;77.66;96485.20;615123;230;66911;-62
2022/08/13 10:33:23;;;;;;;;;;;;;;;23.65;77.72;96474.76;615163;230;65135;-63
2022/08/13 10:35:55;;;;;;;;;;;;;;;23.65;77.73;96478.25;615128;230;64957;-63
2022/08/13 10:38:29;;;;;;;;;;;;;;;23.66;77.62;96481.73;615126;230;66942;-62
2022/08/13 10:40:54;;;;;;;;;;;;;;;23.65;77.62;96478.25;615050;229;62688;-63
2022/08/13 10:43:22;;;;;;;;;;;;;;;23.66;77.66;96493.25;615092;230;67253;-63
2022/08/13 10:45:50;;;;;;;;;;;;;;;23.66;77.66;96497.82;615145;230;64776;-63
2022/08/13 10:48:18;;;;;;;;;;;;;;;23.66;77.60;96503.19;615146;230;62773;-62
2022/08/13 10:50:46;;;;;;;;;;;;;;;23.65;77.59;96502.40;615115;230;67206;-63
2022/08/13 10:53:55;;;;;;;;;;;;;;;23.65;77.59;96510.45;615155;230;64746;-62
2022/08/13 10:55:42;;;;;;;;;;;;;;;23.65;77.59;96510.45;614646;230;62791;-63
2022/08/13 10:58:14;;;;;;;;;;;;;;;23.65;77.61;96505.08;615117;230;67154;-62
2022/08/13 11:00:39;;;;;;;;;;;;;;;23.66;77.57;96513.92;615124;229;66855;-63
2022/08/13 11:03:09;;;;;;;;;;;;;;;23.66;77.58;96509.34;615134;230;64905;-62
2022/08/13 11:05:36;;;;;;;;;;;;;;;23.65;77.50;96512.31;615086;230;67042;-63
2022/08/13 11:08:04;;;;;;;;;;;;;;;23.65;77.65;96507.77;615100;230;67275;-62
2022/08/13 11:10:32;;;;;;;;;;;;;;;23.65;77.48;96513.13;615141;230;65116;-63
2022/08/13 11:12:59;;;;;;;;;;;;;;;23.65;77.50;96513.13;615120;230;64718;-63
2022/08/13 11:15:27;;;;;;;;;;;;;;;23.66;77.43;96511.23;615146;230;68670;-63
2022/08/13 11:17:54;;;;;;;;;;;;;;;23.65;77.40;96510.45;615087;229;62763;-62
2022/08/13 11:20:24;;;;;;;;;;;;;;;23.66;77.44;96511.23;615114;230;67067;-63
2022/08/13 11:22:55;;;;;;;;;;;;;;;23.65;77.43;96510.45;615135;230;66903;-63
2022/08/13 11:25:23;;;;;;;;;;;;;;;23.65;77.43;96501.58;615132;230;64856;-63
2022/08/13 11:27:51;;;;;;;;;;;;;;;23.66;77.42;96511.23;615128;230;64226;-62
2022/08/13 11:30:19;;;;;;;;;;;;;;;23.66;77.33;96509.34;615149;230;64839;-63
2022/08/13 11:32:46;;;;;;;;;;;;;;;23.65;77.32;96513.13;615099;230;65339;-63
2022/08/13 11:35:14;;;;;;;;;;;;;;;23.65;77.26;96515.81;615115;230;67352;-63
2022/08/13 11:37:42;;;;;;;;;;;;;;;23.66;77.24;96514.70;615124;230;66869;-63
2022/08/13 11:40:10;;;;;;;;;;;;;;;23.66;77.28;96513.92;615133;230;65101;-62
2022/08/13 11:42:37;;;;;;;;;;;;;;;23.66;77.22;96508.55;615149;230;67106;-63
2022/08/13 11:45:06;;;;;;;;;;;;;;;23.65;77.18;96505.08;615121;230;64782;-63
2022/08/13 11:47:35;;;;;;;;;;;;;;;23.65;77.23;96507.77;615115;230;65080;-63
2022/08/13 11:50:02;;;;;;;;;;;;;;;23.65;77.23;96502.40;615066;229;67217;-62
2022/08/13 11:52:31;;;;;;;;;;;;;;;23.66;77.21;96503.19;615173;230;64514;-63
2022/08/13 11:54:59;;;;;;;;;;;;;;;23.65;77.17;96502.40;615092;230;64884;-63
2022/08/13 11:57:26;;;;;;;;;;;;;;;23.65;77.16;96493.53;615108;230;64820;-63
2022/08/13 11:59:54;;;;;;;;;;;;;;;23.65;77.14;96488.98;615110;230;67289;-63
2022/08/13 12:02:22;;;;;;;;;;;;;;;23.65;77.26;96483.62;615121;230;62778;-63
2022/08/13 12:04:50;;;;;;;;;;;;;;;23.66;77.15;96489.77;615179;230;67273;-68
2022/08/13 12:07:18;;;;;;;;;;;;;;;23.66;77.17;96492.45;615166;230;67012;-68
2022/08/13 12:09:46;;;;;;;;;;;;;;;23.65;77.11;96491.67;615115;230;65193;-68
2022/08/13 12:12:14;;;;;;;;;;;;;;;23.66;77.10;96487.09;615097;230;67424;-68
2022/08/13 12:14:42;;;;;;;;;;;;;;;23.66;77.15;96492.45;615114;230;64738;-68
2022/08/13 12:17:09;;;;;;;;;;;;;;;23.66;77.10;96489.77;616443;229;62619;-68
2022/08/13 12:19:37;;;;;;;;;;;;;;;23.67;77.14;96494.03;619661;229;67258;-62
2022/08/13 12:22:05;;;;;;;;;;;;;;;23.66;77.15;96503.19;619608;229;67505;-63
2022/08/13 12:24:33;;;;;;;;;;;;;;;23.65;77.10;96499.72;619662;229;62666;-62
2022/08/13 12:27:00;;;;;;;;;;;;;;;23.66;77.09;96495.14;619672;229;64779;-63
2022/08/13 12:29:28;;;;;;;;;;;;;;;23.66;77.15;96492.45;619655;229;64798;-63
2022/08/13 12:31:56;;;;;;;;;;;;;;;23.66;77.14;96500.51;619722;229;62737;-63
2022/08/13 12:34:24;;;;;;;;;;;;;;;23.65;77.14;96496.22;613022;229;67073;-63
2022/08/13 12:36:52;;;;;;;;;;;;;;;23.66;77.09;96501.30;619627;229;66988;-63
2022/08/13 12:39:19;;;;;;;;;;;;;;;23.65;77.12;96496.22;619695;229;64869;-63
2022/08/13 12:41:47;;;;;;;;;;;;;;;23.65;77.13;96502.40;619677;229;64430;-63
2022/08/13 12:44:14;;;;;;;;;;;;;;;23.65;77.05;96505.08;619713;229;64876;-63
2022/08/13 12:46:42;;;;;;;;;;;;;;;23.65;77.02;96497.03;619600;229;65148;-63
2022/08/13 12:49:09;;;;;;;;;;;;;;;23.66;77.07;96495.14;619633;229;67306;-63
2022/08/13 12:51:37;;;;;;;;;;;;;;;23.65;77.02;96491.67;619643;229;66896;-63
2022/08/13 12:54:04;;;;;;;;;;;;;;;23.66;77.00;96489.77;619650;229;65070;-63
2022/08/13 12:56:32;;;;;;;;;;;;;;;23.65;76.97;96483.62;619651;229;67121;-63
2022/08/13 12:58:59;;;;;;;;;;;;;;;23.66;77.01;96487.09;619650;229;67247;-63
2022/08/13 13:01:28;;;;;;;;;;;;;;;23.65;76.97;96486.30;619652;229;64911;-63
2022/08/13 13:03:55;;;;;;;;;;;;;;;23.66;76.96;96492.45;619697;229;64231;-63
2022/08/13 13:06:23;;;;;;;;;;;;;;;23.66;77.03;96501.30;619675;229;64385;-62
2022/08/13 13:08:50;;;;;;;;;;;;;;;23.66;76.97;96497.82;619714;229;62728;-62
2022/08/13 13:11:18;;;;;;;;;;;;;;;23.67;76.97;96494.03;619658;229;64537;-63
2022/08/13 13:13:52;;;;;;;;;;;;;;;23.65;76.99;96494.35;619632;229;66813;-63
2022/08/13 13:16:16;;;;;;;;;;;;;;;23.65;76.96;96494.35;619462;229;62733;-63
2022/08/13 13:18:45;;;;;;;;;;;;;;;23.65;76.99;96497.03;619627;229;66867;-63